sensor_id;sensor_type;location;lat;lon;timestamp;pressure;altitude;pressure_sealevel;temperature
48854;BMP280;34673;52.808;17.856;2023-07-16T00:01:21;99836.72;;;24.45
48854;BMP280;34673;52.808;17.856;2023-07-16T00:03:48;99841.59;;;24.38
48854;BMP280;34673;52.808;17.856;2023-07-16T00:06:15;99842.44;;;24.39
48854;BMP280;34673;52.808;17.856;2023-07-16T00:08:43;99829.19;;;24.27
48854;BMP280;34673;52.808;17.856;2023-07-16T00:11:10;99828.94;;;24.30
48854;BMP280;34673;52.808;17.856;2023-07-16T00:13:37;99817.13;;;24.23
48854;BMP280;34673;52.808;17.856;2023-07-16T00:16:04;99811.00;;;24.23
48854;BMP280;34673;52.808;17.856;2023-07-16T00:18:32;99814.72;;;24.20
48854;BMP280;34673;52.808;17.856;2023-07-16T00:20:59;99814.84;;;24.19
48854;BMP280;34673;52.808;17.856;2023-07-16T00:23:26;99807.00;;;24.17
48854;BMP280;34673;52.808;17.856;2023-07-16T00:25:53;99806.41;;;24.14
48854;BMP280;34673;52.808;17.856;2023-07-16T00:28:20;99801.13;;;24.14
48854;BMP280;34673;52.808;17.856;2023-07-16T00:30:47;99805.75;;;24.10
48854;BMP280;34673;52.808;17.856;2023-07-16T00:33:15;99801.69;;;24.06
48854;BMP280;34673;52.808;17.856;2023-07-16T00:35:49;99800.94;;;24.04
48854;BMP280;34673;52.808;17.856;2023-07-16T00:38:17;99795.13;;;23.99
48854;BMP280;34673;52.808;17.856;2023-07-16T00:40:46;99806.69;;;23.98
48854;BMP280;34673;52.808;17.856;2023-07-16T00:43:13;99805.00;;;23.97
48854;BMP280;34673;52.808;17.856;2023-07-16T00:45:42;99797.28;;;23.94
48854;BMP280;34673;52.808;17.856;2023-07-16T00:48:12;99786.19;;;23.88
48854;BMP280;34673;52.808;17.856;2023-07-16T00:50:40;99784.50;;;23.87
48854;BMP280;34673;52.808;17.856;2023-07-16T00:53:08;99786.63;;;23.82
48854;BMP280;34673;52.808;17.856;2023-07-16T00:55:36;99792.16;;;23.79
48854;BMP280;34673;52.808;17.856;2023-07-16T00:58:06;99787.84;;;23.78
48854;BMP280;34673;52.808;17.856;2023-07-16T01:00:35;99788.91;;;23.76
48854;BMP280;34673;52.808;17.856;2023-07-16T01:03:04;99795.25;;;23.73
48854;BMP280;34673;52.808;17.856;2023-07-16T01:11:00;99794.91;;;23.65
48854;BMP280;34673;52.808;17.856;2023-07-16T01:13:32;99783.59;;;23.63
48854;BMP280;34673;52.808;17.856;2023-07-16T01:15:59;99777.59;;;23.61
48854;BMP280;34673;52.808;17.856;2023-07-16T01:18:28;99783.09;;;23.58
48854;BMP280;34673;52.808;17.856;2023-07-16T01:20:55;99774.88;;;23.50
48854;BMP280;34673;52.808;17.856;2023-07-16T01:23:50;99779.31;;;23.49
48854;BMP280;34673;52.808;17.856;2023-07-16T01:26:57;99796.22;;;23.47
48854;BMP280;34673;52.808;17.856;2023-07-16T01:29:42;99785.03;;;23.43
48854;BMP280;34673;52.808;17.856;2023-07-16T01:32:11;99784.38;;;23.39
48854;BMP280;34673;52.808;17.856;2023-07-16T01:34:39;99785.34;;;23.38
48854;BMP280;34673;52.808;17.856;2023-07-16T01:37:07;99784.38;;;23.39
48854;BMP280;34673;52.808;17.856;2023-07-16T01:39:35;99773.13;;;23.37
48854;BMP280;34673;52.808;17.856;2023-07-16T01:42:03;99760.13;;;23.34
48854;BMP280;34673;52.808;17.856;2023-07-16T01:44:30;99767.09;;;23.35
48854;BMP280;34673;52.808;17.856;2023-07-16T01:47:04;99764.97;;;23.40
48854;BMP280;34673;52.808;17.856;2023-07-16T01:49:33;99757.38;;;23.36
48854;BMP280;34673;52.808;17.856;2023-07-16T01:52:05;99766.88;;;23.38
48854;BMP280;34673;52.808;17.856;2023-07-16T01:54:32;99765.41;;;23.34
48854;BMP280;34673;52.808;17.856;2023-07-16T01:56:59;99750.00;;;23.28
48854;BMP280;34673;52.808;17.856;2023-07-16T01:59:27;99766.34;;;23.33
48854;BMP280;34673;52.808;17.856;2023-07-16T02:01:55;99750.00;;;23.28
48854;BMP280;34673;52.808;17.856;2023-07-16T02:04:22;99765.59;;;23.31
48854;BMP280;34673;52.808;17.856;2023-07-16T02:06:49;99758.88;;;23.27
48854;BMP280;34673;52.808;17.856;2023-07-16T02:09:20;99768.91;;;23.22
48854;BMP280;34673;52.808;17.856;2023-07-16T02:11:48;99765.22;;;23.25
48854;BMP280;34673;52.808;17.856;2023-07-16T02:14:15;99764.16;;;23.14
48854;BMP280;34673;52.808;17.856;2023-07-16T02:16:43;99768.59;;;23.14
48854;BMP280;34673;52.808;17.856;2023-07-16T02:19:10;99761.00;;;23.09
48854;BMP280;34673;52.808;17.856;2023-07-16T02:21:37;99775.38;;;23.05
48854;BMP280;34673;52.808;17.856;2023-07-16T02:24:05;99774.72;;;23.01
48854;BMP280;34673;52.808;17.856;2023-07-16T02:26:32;99769.31;;;22.90
48854;BMP280;34673;52.808;17.856;2023-07-16T02:28:59;99775.31;;;22.92
48854;BMP280;34673;52.808;17.856;2023-07-16T02:31:27;99789.69;;;22.88
48854;BMP280;34673;52.808;17.856;2023-07-16T02:33:54;99775.97;;;22.83
48854;BMP280;34673;52.808;17.856;2023-07-16T02:36:21;99783.22;;;22.79
48854;BMP280;34673;52.808;17.856;2023-07-16T02:38:48;99786.91;;;22.77
48854;BMP280;34673;52.808;17.856;2023-07-16T02:41:16;99775.53;;;22.76
48854;BMP280;34673;52.808;17.856;2023-07-16T02:43:45;99773.41;;;22.69
48854;BMP280;34673;52.808;17.856;2023-07-16T02:46:13;99775.31;;;22.67
48854;BMP280;34673;52.808;17.856;2023-07-16T02:48:41;99780.59;;;22.67
48854;BMP280;34673;52.808;17.856;2023-07-16T02:51:08;99770.25;;;22.64
48854;BMP280;34673;52.808;17.856;2023-07-16T02:53:35;99780.81;;;22.64
48854;BMP280;34673;52.808;17.856;2023-07-16T02:56:02;99772.16;;;22.62
48854;BMP280;34673;52.808;17.856;2023-07-16T02:58:30;99777.22;;;22.65
48854;BMP280;34673;52.808;17.856;2023-07-16T03:00:59;99765.16;;;22.61
48854;BMP280;34673;52.808;17.856;2023-07-16T03:03:26;99771.50;;;22.58
48854;BMP280;34673;52.808;17.856;2023-07-16T03:06:02;99776.34;;;22.51
48854;BMP280;34673;52.808;17.856;2023-07-16T03:08:29;99770.03;;;22.54
48854;BMP280;34673;52.808;17.856;2023-07-16T03:10:58;99770.84;;;22.54
48854;BMP280;34673;52.808;17.856;2023-07-16T03:13:26;99778.97;;;22.51
48854;BMP280;34673;52.808;17.856;2023-07-16T03:15:53;99769.38;;;22.50
48854;BMP280;34673;52.808;17.856;2023-07-16T03:18:20;99753.97;;;22.44
48854;BMP280;34673;52.808;17.856;2023-07-16T03:20:47;99766.84;;;22.49
48854;BMP280;34673;52.808;17.856;2023-07-16T03:23:15;99770.22;;;22.51
48854;BMP280;34673;52.808;17.856;2023-07-16T03:25:42;99762.63;;;22.46
48854;BMP280;34673;52.808;17.856;2023-07-16T03:28:09;99754.19;;;22.41
48854;BMP280;34673;52.808;17.856;2023-07-16T03:30:36;99755.69;;;22.45
48854;BMP280;34673;52.808;17.856;2023-07-16T03:33:04;99755.69;;;22.45
48854;BMP280;34673;52.808;17.856;2023-07-16T03:35:33;99750.41;;;22.45
48854;BMP280;34673;52.808;17.856;2023-07-16T03:38:00;99747.03;;;22.43
48854;BMP280;34673;52.808;17.856;2023-07-16T03:40:29;99742.38;;;22.47
48854;BMP280;34673;52.808;17.856;2023-07-16T03:42:57;99739.84;;;22.45
48854;BMP280;34673;52.808;17.856;2023-07-16T03:45:24;99734.38;;;22.48
48854;BMP280;34673;52.808;17.856;2023-07-16T03:47:51;99716.84;;;22.47
48854;BMP280;34673;52.808;17.856;2023-07-16T03:50:18;99723.22;;;22.45
48854;BMP280;34673;52.808;17.856;2023-07-16T03:52:46;99729.09;;;22.48
48854;BMP280;34673;52.808;17.856;2023-07-16T03:55:13;99725.72;;;22.46
48854;BMP280;34673;52.808;17.856;2023-07-16T03:57:42;99734.91;;;22.53
48854;BMP280;34673;52.808;17.856;2023-07-16T04:00:10;99725.31;;;22.52
48854;BMP280;34673;52.808;17.856;2023-07-16T04:02:40;99735.44;;;22.59
48854;BMP280;34673;52.808;17.856;2023-07-16T04:05:12;99744.06;;;22.61
48854;BMP280;34673;52.808;17.856;2023-07-16T04:07:39;99740.50;;;22.62
48854;BMP280;34673;52.808;17.856;2023-07-16T04:10:07;99713.28;;;22.48
48854;BMP280;34673;52.808;17.856;2023-07-16T04:12:34;99768.78;;;22.72
48854;BMP280;34673;52.808;17.856;2023-07-16T04:15:07;99775.31;;;22.79
48854;BMP280;34673;52.808;17.856;2023-07-16T04:17:35;99788.41;;;22.81
48854;BMP280;34673;52.808;17.856;2023-07-16T04:20:03;99816.06;;;22.88
48854;BMP280;34673;52.808;17.856;2023-07-16T04:22:30;99826.59;;;22.88
48854;BMP280;34673;52.808;17.856;2023-07-16T04:24:57;99828.91;;;22.93
48854;BMP280;34673;52.808;17.856;2023-07-16T04:27:25;99826.00;;;22.97
48854;BMP280;34673;52.808;17.856;2023-07-16T04:29:52;99835.38;;;23.01
48854;BMP280;34673;52.808;17.856;2023-07-16T04:32:19;99824.13;;;22.99
48854;BMP280;34673;52.808;17.856;2023-07-16T04:34:46;99853.03;;;23.14
48854;BMP280;34673;52.808;17.856;2023-07-16T04:37:14;99847.31;;;23.20
48854;BMP280;34673;52.808;17.856;2023-07-16T04:39:41;99850.81;;;23.33
48854;BMP280;34673;52.808;17.856;2023-07-16T04:42:08;99835.91;;;23.45
48854;BMP280;34673;52.808;17.856;2023-07-16T04:44:35;99838.00;;;23.53
48854;BMP280;34673;52.808;17.856;2023-07-16T04:47:03;99862.38;;;23.69
48854;BMP280;34673;52.808;17.856;2023-07-16T04:49:30;99870.78;;;23.76
48854;BMP280;34673;52.808;17.856;2023-07-16T04:51:57;99858.91;;;23.81
48854;BMP280;34673;52.808;17.856;2023-07-16T04:54:24;99870.72;;;23.88
48854;BMP280;34673;52.808;17.856;2023-07-16T04:56:51;99866.69;;;23.96
48854;BMP280;34673;52.808;17.856;2023-07-16T04:59:19;99852.31;;;24.00
48854;BMP280;34673;52.808;17.856;2023-07-16T05:01:46;99860.31;;;24.11
48854;BMP280;34673;52.808;17.856;2023-07-16T05:04:13;99865.75;;;24.21
48854;BMP280;34673;52.808;17.856;2023-07-16T05:06:40;99859.91;;;24.28
48854;BMP280;34673;52.808;17.856;2023-07-16T05:09:07;99865.50;;;24.37
48854;BMP280;34673;52.808;17.856;2023-07-16T05:11:34;99858.06;;;24.42
48854;BMP280;34673;52.808;17.856;2023-07-16T05:14:02;99861.03;;;24.50
48854;BMP280;34673;52.808;17.856;2023-07-16T05:16:29;99879.81;;;24.58
48854;BMP280;34673;52.808;17.856;2023-07-16T05:18:56;99866.59;;;24.58
48854;BMP280;34673;52.808;17.856;2023-07-16T05:21:23;99871.41;;;24.64
48854;BMP280;34673;52.808;17.856;2023-07-16T05:23:51;99893.47;;;24.76
48854;BMP280;34673;52.808;17.856;2023-07-16T05:26:18;99888.56;;;24.83
48854;BMP280;34673;52.808;17.856;2023-07-16T05:28:45;99884.97;;;24.84
48854;BMP280;34673;52.808;17.856;2023-07-16T05:31:13;99888.81;;;24.91
48854;BMP280;34673;52.808;17.856;2023-07-16T05:33:40;99878.00;;;24.94
48854;BMP280;34673;52.808;17.856;2023-07-16T05:36:07;99871.53;;;24.98
48854;BMP280;34673;52.808;17.856;2023-07-16T05:38:34;99867.56;;;24.92
48854;BMP280;34673;52.808;17.856;2023-07-16T05:41:02;99899.22;;;25.05
48854;BMP280;34673;52.808;17.856;2023-07-16T05:43:30;99903.41;;;25.08
48854;BMP280;34673;52.808;17.856;2023-07-16T05:45:58;99895.63;;;25.06
48854;BMP280;34673;52.808;17.856;2023-07-16T05:48:25;99911.03;;;25.12
48854;BMP280;34673;52.808;17.856;2023-07-16T05:50:52;99912.28;;;25.19
48854;BMP280;34673;52.808;17.856;2023-07-16T05:53:20;99918.31;;;25.22
48854;BMP280;34673;52.808;17.856;2023-07-16T05:55:47;99919.75;;;25.26
48854;BMP280;34673;52.808;17.856;2023-07-16T05:58:16;99922.91;;;25.31
48854;BMP280;34673;52.808;17.856;2023-07-16T06:00:44;99921.69;;;25.35
48854;BMP280;34673;52.808;17.856;2023-07-16T06:03:11;99935.41;;;25.40
48854;BMP280;34673;52.808;17.856;2023-07-16T06:05:38;99940.28;;;25.46
48854;BMP280;34673;52.808;17.856;2023-07-16T06:08:05;99943.63;;;25.48
48854;BMP280;34673;52.808;17.856;2023-07-16T06:10:34;99945.69;;;25.56
48854;BMP280;34673;52.808;17.856;2023-07-16T06:13:01;99954.47;;;25.68
48854;BMP280;34673;52.808;17.856;2023-07-16T06:15:28;99960.50;;;25.81
48854;BMP280;34673;52.808;17.856;2023-07-16T06:17:56;99959.84;;;25.90
48854;BMP280;34673;52.808;17.856;2023-07-16T06:20:23;99962.72;;;25.98
48854;BMP280;34673;52.808;17.856;2023-07-16T06:22:50;99960.31;;;26.06
48854;BMP280;34673;52.808;17.856;2023-07-16T06:25:17;99955.72;;;26.20
48854;BMP280;34673;52.808;17.856;2023-07-16T06:27:45;99953.06;;;26.31
48854;BMP280;34673;52.808;17.856;2023-07-16T06:30:12;99969.44;;;26.47
48854;BMP280;34673;52.808;17.856;2023-07-16T06:32:39;99967.50;;;26.61
48854;BMP280;34673;52.808;17.856;2023-07-16T06:35:08;99964.44;;;26.77
48854;BMP280;34673;52.808;17.856;2023-07-16T06:37:35;99958.69;;;26.92
48854;BMP280;34673;52.808;17.856;2023-07-16T06:40:03;99959.25;;;27.07
48854;BMP280;34673;52.808;17.856;2023-07-16T06:42:30;99974.16;;;27.19
48854;BMP280;34673;52.808;17.856;2023-07-16T06:44:58;99975.69;;;27.33
48854;BMP280;34673;52.808;17.856;2023-07-16T06:47:25;99958.16;;;27.52
48854;BMP280;34673;52.808;17.856;2023-07-16T06:49:52;99966.69;;;27.76
48854;BMP280;34673;52.808;17.856;2023-07-16T06:52:21;99953.53;;;27.96
48854;BMP280;34673;52.808;17.856;2023-07-16T06:54:48;99972.34;;;28.14
48854;BMP280;34673;52.808;17.856;2023-07-16T06:57:15;99986.97;;;28.29
48854;BMP280;34673;52.808;17.856;2023-07-16T06:59:43;99982.25;;;28.42
48854;BMP280;34673;52.808;17.856;2023-07-16T07:02:11;99985.22;;;28.49
48854;BMP280;34673;52.808;17.856;2023-07-16T07:04:39;99974.38;;;28.41
48854;BMP280;34673;52.808;17.856;2023-07-16T07:07:06;99991.16;;;28.32
48854;BMP280;34673;52.808;17.856;2023-07-16T07:09:33;99984.41;;;28.18
48854;BMP280;34673;52.808;17.856;2023-07-16T07:12:01;99979.88;;;28.09
48854;BMP280;34673;52.808;17.856;2023-07-16T07:14:28;99986.91;;;28.19
48854;BMP280;34673;52.808;17.856;2023-07-16T07:16:56;99996.22;;;28.35
48854;BMP280;34673;52.808;17.856;2023-07-16T07:19:23;99996.56;;;28.51
48854;BMP280;34673;52.808;17.856;2023-07-16T07:21:50;100000.78;;;28.63
48854;BMP280;34673;52.808;17.856;2023-07-16T07:24:17;99997.75;;;28.78
48854;BMP280;34673;52.808;17.856;2023-07-16T07:26:44;100009.22;;;28.88
48854;BMP280;34673;52.808;17.856;2023-07-16T07:29:12;99966.63;;;28.88
48854;BMP280;34673;52.808;17.856;2023-07-16T07:31:40;100005.91;;;29.15
48854;BMP280;34673;52.808;17.856;2023-07-16T07:34:08;99999.13;;;29.01
48854;BMP280;34673;52.808;17.856;2023-07-16T07:36:35;99996.03;;;28.77
48854;BMP280;34673;52.808;17.856;2023-07-16T07:39:02;100012.28;;;28.64
48854;BMP280;34673;52.808;17.856;2023-07-16T07:41:29;100017.13;;;28.49
48854;BMP280;34673;52.808;17.856;2023-07-16T07:43:57;100013.84;;;28.36
48854;BMP280;34673;52.808;17.856;2023-07-16T07:46:24;100025.47;;;28.35
48854;BMP280;34673;52.808;17.856;2023-07-16T07:48:51;100027.59;;;28.41
48854;BMP280;34673;52.808;17.856;2023-07-16T07:51:18;100030.06;;;28.54
48854;BMP280;34673;52.808;17.856;2023-07-16T07:53:46;100015.94;;;28.72
48854;BMP280;34673;52.808;17.856;2023-07-16T07:56:13;100008.09;;;28.90
48854;BMP280;34673;52.808;17.856;2023-07-16T07:58:41;100016.25;;;28.89
48854;BMP280;34673;52.808;17.856;2023-07-16T08:01:08;100023.81;;;28.84
48854;BMP280;34673;52.808;17.856;2023-07-16T08:03:36;100022.38;;;28.70
48854;BMP280;34673;52.808;17.856;2023-07-16T08:06:03;100016.47;;;28.57
48854;BMP280;34673;52.808;17.856;2023-07-16T08:08:31;100020.53;;;28.51
48854;BMP280;34673;52.808;17.856;2023-07-16T08:10:58;100029.81;;;28.36
48854;BMP280;34673;52.808;17.856;2023-07-16T08:13:25;100028.25;;;28.23
48854;BMP280;34673;52.808;17.856;2023-07-16T08:15:52;100046.31;;;28.29
48854;BMP280;34673;52.808;17.856;2023-07-16T08:18:19;100051.63;;;28.29
48854;BMP280;34673;52.808;17.856;2023-07-16T08:20:47;100063.38;;;28.27
48854;BMP280;34673;52.808;17.856;2023-07-16T08:23:14;100072.03;;;28.19
48854;BMP280;34673;52.808;17.856;2023-07-16T08:25:42;100081.88;;;28.28
48854;BMP280;34673;52.808;17.856;2023-07-16T08:28:10;100097.59;;;28.41
48854;BMP280;34673;52.808;17.856;2023-07-16T08:30:38;100096.97;;;28.49
48854;BMP280;34673;52.808;17.856;2023-07-16T08:33:05;100096.00;;;28.50
48854;BMP280;34673;52.808;17.856;2023-07-16T08:35:33;100082.00;;;28.48
48854;BMP280;34673;52.808;17.856;2023-07-16T08:38:01;100100.34;;;28.51
48854;BMP280;34673;52.808;17.856;2023-07-16T08:40:28;100106.13;;;28.56
48854;BMP280;34673;52.808;17.856;2023-07-16T08:42:56;100118.44;;;28.57
48854;BMP280;34673;52.808;17.856;2023-07-16T08:45:25;100118.69;;;28.54
48854;BMP280;34673;52.808;17.856;2023-07-16T08:47:55;100119.88;;;28.61
48854;BMP280;34673;52.808;17.856;2023-07-16T08:50:24;100124.91;;;28.64
48854;BMP280;34673;52.808;17.856;2023-07-16T08:52:53;100119.16;;;28.59
48854;BMP280;34673;52.808;17.856;2023-07-16T08:55:21;100138.94;;;28.66
48854;BMP280;34673;52.808;17.856;2023-07-16T08:57:49;100135.56;;;28.64
48854;BMP280;34673;52.808;17.856;2023-07-16T09:00:17;100147.00;;;28.55
48854;BMP280;34673;52.808;17.856;2023-07-16T09:02:45;100156.50;;;28.48
48854;BMP280;34673;52.808;17.856;2023-07-16T09:05:14;100155.56;;;28.38
48854;BMP280;34673;52.808;17.856;2023-07-16T09:08:02;100157.47;;;28.26
48854;BMP280;34673;52.808;17.856;2023-07-16T09:10:29;100165.66;;;28.13
48854;BMP280;34673;52.808;17.856;2023-07-16T09:12:58;100160.91;;;27.96
48854;BMP280;34673;52.808;17.856;2023-07-16T09:15:28;100160.00;;;27.86
48854;BMP280;34673;52.808;17.856;2023-07-16T09:17:56;100164.09;;;27.78
48854;BMP280;34673;52.808;17.856;2023-07-16T09:20:24;100173.53;;;27.71
48854;BMP280;34673;52.808;17.856;2023-07-16T09:22:54;100160.03;;;27.63
48854;BMP280;34673;52.808;17.856;2023-07-16T09:25:31;100162.25;;;27.58
48854;BMP280;34673;52.808;17.856;2023-07-16T09:28:03;100170.47;;;27.55
48854;BMP280;34673;52.808;17.856;2023-07-16T09:30:31;100173.38;;;27.52
48854;BMP280;34673;52.808;17.856;2023-07-16T09:33:12;100179.19;;;27.46
48854;BMP280;34673;52.808;17.856;2023-07-16T09:35:40;100177.16;;;27.38
48854;BMP280;34673;52.808;17.856;2023-07-16T09:38:08;100187.44;;;27.31
48854;BMP280;34673;52.808;17.856;2023-07-16T09:40:37;100189.88;;;27.23
48854;BMP280;34673;52.808;17.856;2023-07-16T09:43:06;100208.00;;;27.18
48854;BMP280;34673;52.808;17.856;2023-07-16T09:45:33;100192.50;;;27.01
48854;BMP280;34673;52.808;17.856;2023-07-16T09:48:02;100213.66;;;27.02
48854;BMP280;34673;52.808;17.856;2023-07-16T09:50:32;100213.66;;;26.91
48854;BMP280;34673;52.808;17.856;2023-07-16T09:53:00;100207.50;;;26.79
48854;BMP280;34673;52.808;17.856;2023-07-16T09:55:34;100177.34;;;26.58
48854;BMP280;34673;52.808;17.856;2023-07-16T09:58:06;100181.88;;;26.44
48854;BMP280;34673;52.808;17.856;2023-07-16T10:00:37;100180.63;;;26.26
48854;BMP280;34673;52.808;17.856;2023-07-16T10:03:07;100200.56;;;26.07
48854;BMP280;34673;52.808;17.856;2023-07-16T10:05:38;100210.53;;;25.93
48854;BMP280;34673;52.808;17.856;2023-07-16T10:08:15;100202.84;;;25.77
48854;BMP280;34673;52.808;17.856;2023-07-16T10:10:45;100207.06;;;25.55
48854;BMP280;34673;52.808;17.856;2023-07-16T10:13:16;100206.50;;;25.39
48854;BMP280;34673;52.808;17.856;2023-07-16T10:15:58;100203.66;;;25.29
48854;BMP280;34673;52.808;17.856;2023-07-16T10:18:30;100200.09;;;25.17
48854;BMP280;34673;52.808;17.856;2023-07-16T10:21:02;100204.09;;;25.10
48854;BMP280;34673;52.808;17.856;2023-07-16T10:23:41;100197.34;;;25.06
48854;BMP280;34673;52.808;17.856;2023-07-16T10:26:11;100197.56;;;25.03
48854;BMP280;34673;52.808;17.856;2023-07-16T10:28:44;100207.50;;;24.99
48854;BMP280;34673;52.808;17.856;2023-07-16T10:31:22;100207.31;;;25.03
48854;BMP280;34673;52.808;17.856;2023-07-16T10:33:58;100201.13;;;25.02
48854;BMP280;34673;52.808;17.856;2023-07-16T10:36:26;100203.78;;;25.02
48854;BMP280;34673;52.808;17.856;2023-07-16T10:38:53;100210.13;;;25.12
48854;BMP280;34673;52.808;17.856;2023-07-16T10:41:20;100215.75;;;25.20
48854;BMP280;34673;52.808;17.856;2023-07-16T10:43:47;100165.97;;;25.26
48854;BMP280;34673;52.808;17.856;2023-07-16T10:46:15;100195.50;;;26.04
48854;BMP280;34673;52.808;17.856;2023-07-16T10:48:47;100205.78;;;26.78
48854;BMP280;34673;52.808;17.856;2023-07-16T10:51:15;100220.50;;;27.16
48854;BMP280;34673;52.808;17.856;2023-07-16T10:53:43;100213.00;;;27.44
48854;BMP280;34673;52.808;17.856;2023-07-16T10:56:11;100202.78;;;27.82
48854;BMP280;34673;52.808;17.856;2023-07-16T10:58:38;100192.56;;;27.99
48854;BMP280;34673;52.808;17.856;2023-07-16T11:01:08;100200.47;;;28.10
48854;BMP280;34673;52.808;17.856;2023-07-16T11:03:36;100210.59;;;28.16
48854;BMP280;34673;52.808;17.856;2023-07-16T11:06:08;100209.19;;;28.12
48854;BMP280;34673;52.808;17.856;2023-07-16T11:08:35;100203.59;;;28.15
48854;BMP280;34673;52.808;17.856;2023-07-16T11:11:03;100205.13;;;28.39
48854;BMP280;34673;52.808;17.856;2023-07-16T11:13:34;100201.56;;;28.70
48854;BMP280;34673;52.808;17.856;2023-07-16T11:16:10;100197.47;;;28.97
48854;BMP280;34673;52.808;17.856;2023-07-16T11:18:38;100196.31;;;29.21
48854;BMP280;34673;52.808;17.856;2023-07-16T11:21:05;100201.84;;;29.48
48854;BMP280;34673;52.808;17.856;2023-07-16T11:23:35;100196.53;;;29.77
48854;BMP280;34673;52.808;17.856;2023-07-16T11:26:03;100196.84;;;30.03
48854;BMP280;34673;52.808;17.856;2023-07-16T11:28:41;100199.75;;;30.20
48854;BMP280;34673;52.808;17.856;2023-07-16T11:31:16;100200.03;;;30.36
48854;BMP280;34673;52.808;17.856;2023-07-16T11:33:44;100200.56;;;30.50
48854;BMP280;34673;52.808;17.856;2023-07-16T11:36:12;100189.59;;;30.53
48854;BMP280;34673;52.808;17.856;2023-07-16T11:38:40;100192.34;;;30.70
48854;BMP280;34673;52.808;17.856;2023-07-16T11:41:08;100193.44;;;30.78
48854;BMP280;34673;52.808;17.856;2023-07-16T11:43:35;100188.63;;;30.91
48854;BMP280;34673;52.808;17.856;2023-07-16T11:46:13;100202.66;;;31.03
48854;BMP280;34673;52.808;17.856;2023-07-16T11:48:42;100206.78;;;31.15
48854;BMP280;34673;52.808;17.856;2023-07-16T11:51:09;100204.81;;;31.17
48854;BMP280;34673;52.808;17.856;2023-07-16T11:53:36;100195.81;;;31.18
48854;BMP280;34673;52.808;17.856;2023-07-16T11:56:06;100196.41;;;31.12
48854;BMP280;34673;52.808;17.856;2023-07-16T11:58:33;100197.19;;;31.22
48854;BMP280;34673;52.808;17.856;2023-07-16T12:01:00;100194.34;;;31.24
48854;BMP280;34673;52.808;17.856;2023-07-16T12:03:28;100191.25;;;31.28
48854;BMP280;34673;52.808;17.856;2023-07-16T12:05:55;100182.22;;;31.29
48854;BMP280;34673;52.808;17.856;2023-07-16T12:08:23;100185.72;;;31.40
48854;BMP280;34673;52.808;17.856;2023-07-16T12:10:50;100181.84;;;31.52
48854;BMP280;34673;52.808;17.856;2023-07-16T12:13:17;100180.13;;;31.51
48854;BMP280;34673;52.808;17.856;2023-07-16T12:15:44;100153.00;;;31.28
48854;BMP280;34673;52.808;17.856;2023-07-16T12:18:12;100182.81;;;31.51
48854;BMP280;34673;52.808;17.856;2023-07-16T12:20:39;100179.31;;;31.50
48854;BMP280;34673;52.808;17.856;2023-07-16T12:23:09;100186.50;;;31.22
48854;BMP280;34673;52.808;17.856;2023-07-16T12:25:36;100184.31;;;31.08
48854;BMP280;34673;52.808;17.856;2023-07-16T12:28:04;100190.38;;;30.82
48854;BMP280;34673;52.808;17.856;2023-07-16T12:30:31;100186.75;;;30.64
48854;BMP280;34673;52.808;17.856;2023-07-16T12:32:59;100187.56;;;30.74
48854;BMP280;34673;52.808;17.856;2023-07-16T12:35:26;100184.06;;;30.64
48854;BMP280;34673;52.808;17.856;2023-07-16T12:37:53;100201.28;;;30.52
48854;BMP280;34673;52.808;17.856;2023-07-16T12:40:21;100202.28;;;30.31
48854;BMP280;34673;52.808;17.856;2023-07-16T12:42:48;100195.28;;;30.11
48854;BMP280;34673;52.808;17.856;2023-07-16T12:45:15;100192.78;;;29.99
48854;BMP280;34673;52.808;17.856;2023-07-16T12:47:42;100207.38;;;29.95
48854;BMP280;34673;52.808;17.856;2023-07-16T12:50:10;100202.59;;;29.89
48854;BMP280;34673;52.808;17.856;2023-07-16T12:52:37;100196.41;;;29.79
48854;BMP280;34673;52.808;17.856;2023-07-16T12:55:04;100194.19;;;29.65
48854;BMP280;34673;52.808;17.856;2023-07-16T12:57:32;100186.84;;;29.57
48854;BMP280;34673;52.808;17.856;2023-07-16T12:59:59;100193.56;;;29.51
48854;BMP280;34673;52.808;17.856;2023-07-16T13:02:26;100183.59;;;29.44
48854;BMP280;34673;52.808;17.856;2023-07-16T13:04:53;100198.88;;;29.61
48854;BMP280;34673;52.808;17.856;2023-07-16T13:07:20;100195.56;;;29.69
48854;BMP280;34673;52.808;17.856;2023-07-16T13:09:48;100194.19;;;29.65
48854;BMP280;34673;52.808;17.856;2023-07-16T13:12:26;100186.28;;;29.53
48854;BMP280;34673;52.808;17.856;2023-07-16T13:14:54;100192.44;;;29.44
48854;BMP280;34673;52.808;17.856;2023-07-16T13:17:21;100191.00;;;29.30
48854;BMP280;34673;52.808;17.856;2023-07-16T13:19:48;100201.09;;;29.27
48854;BMP280;34673;52.808;17.856;2023-07-16T13:22:15;100192.41;;;29.25
48854;BMP280;34673;52.808;17.856;2023-07-16T13:24:42;100192.97;;;29.38
48854;BMP280;34673;52.808;17.856;2023-07-16T13:27:19;100192.78;;;29.70
48854;BMP280;34673;52.808;17.856;2023-07-16T13:29:47;100198.38;;;30.06
48854;BMP280;34673;52.808;17.856;2023-07-16T13:32:15;100204.84;;;30.23
48854;BMP280;34673;52.808;17.856;2023-07-16T13:34:42;100203.72;;;30.16
48854;BMP280;34673;52.808;17.856;2023-07-16T13:37:10;100189.41;;;29.97
48854;BMP280;34673;52.808;17.856;2023-07-16T13:39:37;100201.47;;;29.82
48854;BMP280;34673;52.808;17.856;2023-07-16T13:42:05;100196.56;;;29.68
48854;BMP280;34673;52.808;17.856;2023-07-16T13:44:49;100189.91;;;29.52
48854;BMP280;34673;52.808;17.856;2023-07-16T13:47:16;100196.66;;;29.56
48854;BMP280;34673;52.808;17.856;2023-07-16T13:49:43;100198.75;;;29.63
48854;BMP280;34673;52.808;17.856;2023-07-16T13:52:10;100198.91;;;29.51
48854;BMP280;34673;52.808;17.856;2023-07-16T13:54:38;100193.84;;;29.48
48854;BMP280;34673;52.808;17.856;2023-07-16T13:57:08;100202.69;;;29.58
48854;BMP280;34673;52.808;17.856;2023-07-16T13:59:35;100195.28;;;29.72
48854;BMP280;34673;52.808;17.856;2023-07-16T14:02:03;100208.22;;;29.76
48854;BMP280;34673;52.808;17.856;2023-07-16T14:04:31;100190.53;;;29.66